sensor_id;sensor_type;location;lat;lon;timestamp;P1;durP1;ratioP1;P2;durP2;ratioP2
32196;SDS011;18697;42.770;23.400;2022-12-11T00:03:03;12.80;;;6.65;;
32196;SDS011;18697;42.770;23.400;2022-12-11T00:05:28;9.27;;;3.80;;
32196;SDS011;18697;42.770;23.400;2022-12-11T00:07:54;8.90;;;4.75;;
32196;SDS011;18697;42.770;23.400;2022-12-11T00:12:44;8.50;;;4.68;;
32196;SDS011;18697;42.770;23.400;2022-12-11T00:15:10;6.55;;;4.28;;
32196;SDS011;18697;42.770;23.400;2022-12-11T00:20:01;9.63;;;3.78;;
32196;SDS011;18697;42.770;23.400;2022-12-11T00:22:28;10.43;;;3.67;;
32196;SDS011;18697;42.770;23.400;2022-12-11T00:24:54;7.32;;;3.42;;
32196;SDS011;18697;42.770;23.400;2022-12-11T00:27:19;8.27;;;3.47;;
32196;SDS011;18697;42.770;23.400;2022-12-11T00:32:10;6.03;;;3.67;;
32196;SDS011;18697;42.770;23.400;2022-12-11T00:37:00;9.15;;;4.63;;
32196;SDS011;18697;42.770;23.400;2022-12-11T00:41:51;8.45;;;4.95;;
32196;SDS011;18697;42.770;23.400;2022-12-11T00:46:41;10.30;;;5.35;;
32196;SDS011;18697;42.770;23.400;2022-12-11T00:51:32;13.00;;;4.47;;
32196;SDS011;18697;42.770;23.400;2022-12-11T00:56:23;15.13;;;4.45;;
32196;SDS011;18697;42.770;23.400;2022-12-11T00:58:49;11.98;;;6.25;;
32196;SDS011;18697;42.770;23.400;2022-12-11T01:01:16;10.35;;;6.20;;
32196;SDS011;18697;42.770;23.400;2022-12-11T01:03:44;13.65;;;5.25;;
32196;SDS011;18697;42.770;23.400;2022-12-11T01:06:17;6.22;;;4.05;;
32196;SDS011;18697;42.770;23.400;2022-12-11T01:08:44;7.22;;;3.40;;
32196;SDS011;18697;42.770;23.400;2022-12-11T01:11:11;7.88;;;3.35;;
32196;SDS011;18697;42.770;23.400;2022-12-11T01:13:39;8.40;;;3.80;;
32196;SDS011;18697;42.770;23.400;2022-12-11T01:16:06;9.00;;;4.50;;
32196;SDS011;18697;42.770;23.400;2022-12-11T01:18:36;5.82;;;4.13;;
32196;SDS011;18697;42.770;23.400;2022-12-11T01:21:09;14.45;;;3.70;;
32196;SDS011;18697;42.770;23.400;2022-12-11T01:23:36;10.45;;;4.15;;
32196;SDS011;18697;42.770;23.400;2022-12-11T01:26:06;8.05;;;3.28;;
32196;SDS011;18697;42.770;23.400;2022-12-11T01:28:33;12.07;;;3.65;;
32196;SDS011;18697;42.770;23.400;2022-12-11T01:30:58;8.38;;;4.88;;
32196;SDS011;18697;42.770;23.400;2022-12-11T01:35:49;10.55;;;4.18;;
32196;SDS011;18697;42.770;23.400;2022-12-11T01:38:14;9.77;;;4.80;;
32196;SDS011;18697;42.770;23.400;2022-12-11T01:43:10;9.52;;;5.45;;
32196;SDS011;18697;42.770;23.400;2022-12-11T01:45:38;10.27;;;4.90;;
32196;SDS011;18697;42.770;23.400;2022-12-11T01:48:05;10.27;;;4.07;;
32196;SDS011;18697;42.770;23.400;2022-12-11T01:50:37;9.05;;;4.47;;
32196;SDS011;18697;42.770;23.400;2022-12-11T01:53:07;10.02;;;5.13;;
32196;SDS011;18697;42.770;23.400;2022-12-11T01:55:36;4.55;;;2.78;;
32196;SDS011;18697;42.770;23.400;2022-12-11T01:58:03;8.88;;;3.30;;
32196;SDS011;18697;42.770;23.400;2022-12-11T02:00:30;3.47;;;2.58;;
32196;SDS011;18697;42.770;23.400;2022-12-11T02:02:55;6.90;;;3.53;;
32196;SDS011;18697;42.770;23.400;2022-12-11T02:07:50;4.78;;;1.98;;
32196;SDS011;18697;42.770;23.400;2022-12-11T02:10:20;9.50;;;0.75;;
32196;SDS011;18697;42.770;23.400;2022-12-11T02:12:56;0.73;;;0.60;;
32196;SDS011;18697;42.770;23.400;2022-12-11T02:15:36;0.73;;;0.73;;
32196;SDS011;18697;42.770;23.400;2022-12-11T02:18:25;0.70;;;0.60;;
32196;SDS011;18697;42.770;23.400;2022-12-11T02:24:22;0.43;;;0.40;;
32196;SDS011;18697;42.770;23.400;2022-12-11T02:29:22;0.20;;;0.10;;
32196;SDS011;18697;42.770;23.400;2022-12-11T02:31:57;1.25;;;0.40;;
32196;SDS011;18697;42.770;23.400;2022-12-11T02:37:02;2.08;;;0.45;;
32196;SDS011;18697;42.770;23.400;2022-12-11T02:39:32;2.20;;;0.40;;
32196;SDS011;18697;42.770;23.400;2022-12-11T02:42:02;0.30;;;0.30;;
32196;SDS011;18697;42.770;23.400;2022-12-11T02:44:29;1.65;;;0.40;;
32196;SDS011;18697;42.770;23.400;2022-12-11T02:46:58;1.38;;;0.60;;
32196;SDS011;18697;42.770;23.400;2022-12-11T02:49:25;1.25;;;0.35;;
32196;SDS011;18697;42.770;23.400;2022-12-11T02:51:51;1.65;;;0.30;;
32196;SDS011;18697;42.770;23.400;2022-12-11T02:54:20;0.98;;;0.40;;
32196;SDS011;18697;42.770;23.400;2022-12-11T02:56:56;0.82;;;0.50;;
32196;SDS011;18697;42.770;23.400;2022-12-11T02:59:33;2.92;;;0.40;;
32196;SDS011;18697;42.770;23.400;2022-12-11T03:02:02;0.82;;;0.40;;
32196;SDS011;18697;42.770;23.400;2022-12-11T03:04:29;0.57;;;0.45;;
32196;SDS011;18697;42.770;23.400;2022-12-11T03:06:55;4.10;;;0.80;;
32196;SDS011;18697;42.770;23.400;2022-12-11T03:09:26;1.92;;;0.40;;
32196;SDS011;18697;42.770;23.400;2022-12-11T03:11:52;5.80;;;0.60;;
32196;SDS011;18697;42.770;23.400;2022-12-11T03:14:17;0.40;;;0.40;;
32196;SDS011;18697;42.770;23.400;2022-12-11T03:19:23;0.88;;;0.45;;
32196;SDS011;18697;42.770;23.400;2022-12-11T03:24:45;3.60;;;1.65;;
32196;SDS011;18697;42.770;23.400;2022-12-11T03:30:06;2.72;;;0.50;;
32196;SDS011;18697;42.770;23.400;2022-12-11T03:33:00;1.58;;;0.70;;
32196;SDS011;18697;42.770;23.400;2022-12-11T03:35:48;0.68;;;0.30;;
32196;SDS011;18697;42.770;23.400;2022-12-11T03:38:20;1.92;;;0.30;;
32196;SDS011;18697;42.770;23.400;2022-12-11T03:40:50;4.38;;;0.73;;
32196;SDS011;18697;42.770;23.400;2022-12-11T03:43:20;1.25;;;0.85;;
32196;SDS011;18697;42.770;23.400;2022-12-11T03:45:47;0.50;;;0.50;;
32196;SDS011;18697;42.770;23.400;2022-12-11T03:48:14;0.75;;;0.63;;
32196;SDS011;18697;42.770;23.400;2022-12-11T03:50:41;0.60;;;0.60;;
32196;SDS011;18697;42.770;23.400;2022-12-11T03:53:07;2.53;;;0.65;;
32196;SDS011;18697;42.770;23.400;2022-12-11T03:55:34;1.10;;;0.50;;
32196;SDS011;18697;42.770;23.400;2022-12-11T03:58:01;4.70;;;1.02;;
32196;SDS011;18697;42.770;23.400;2022-12-11T04:00:27;4.07;;;0.85;;
32196;SDS011;18697;42.770;23.400;2022-12-11T04:02:53;0.88;;;0.70;;
32196;SDS011;18697;42.770;23.400;2022-12-11T04:05:37;2.20;;;0.70;;
32196;SDS011;18697;42.770;23.400;2022-12-11T04:08:04;1.73;;;0.68;;
32196;SDS011;18697;42.770;23.400;2022-12-11T04:10:29;1.73;;;0.70;;
32196;SDS011;18697;42.770;23.400;2022-12-11T04:12:55;4.13;;;1.10;;
32196;SDS011;18697;42.770;23.400;2022-12-11T04:15:20;3.78;;;0.98;;
32196;SDS011;18697;42.770;23.400;2022-12-11T04:17:45;2.38;;;0.90;;
32196;SDS011;18697;42.770;23.400;2022-12-11T04:20:30;2.58;;;1.15;;
32196;SDS011;18697;42.770;23.400;2022-12-11T04:23:15;2.55;;;0.90;;
32196;SDS011;18697;42.770;23.400;2022-12-11T04:28:38;4.50;;;1.00;;
32196;SDS011;18697;42.770;23.400;2022-12-11T04:31:04;3.25;;;0.70;;
32196;SDS011;18697;42.770;23.400;2022-12-11T04:33:29;4.40;;;1.38;;
32196;SDS011;18697;42.770;23.400;2022-12-11T04:35:59;1.58;;;0.80;;
32196;SDS011;18697;42.770;23.400;2022-12-11T04:38:25;4.07;;;1.00;;
32196;SDS011;18697;42.770;23.400;2022-12-11T04:41:00;3.45;;;1.02;;
32196;SDS011;18697;42.770;23.400;2022-12-11T04:48:31;4.03;;;1.30;;
32196;SDS011;18697;42.770;23.400;2022-12-11T04:50:57;9.35;;;2.28;;
32196;SDS011;18697;42.770;23.400;2022-12-11T04:53:22;3.17;;;1.65;;
32196;SDS011;18697;42.770;23.400;2022-12-11T04:55:48;4.07;;;1.50;;
32196;SDS011;18697;42.770;23.400;2022-12-11T04:58:14;4.63;;;1.42;;
32196;SDS011;18697;42.770;23.400;2022-12-11T05:00:39;2.55;;;1.35;;
32196;SDS011;18697;42.770;23.400;2022-12-11T05:03:05;5.82;;;1.50;;
32196;SDS011;18697;42.770;23.400;2022-12-11T05:05:31;3.50;;;0.90;;
32196;SDS011;18697;42.770;23.400;2022-12-11T05:10:21;3.58;;;1.25;;
32196;SDS011;18697;42.770;23.400;2022-12-11T05:15:12;2.60;;;0.70;;
32196;SDS011;18697;42.770;23.400;2022-12-11T05:20:02;3.67;;;0.85;;
32196;SDS011;18697;42.770;23.400;2022-12-11T05:22:29;0.95;;;0.60;;
32196;SDS011;18697;42.770;23.400;2022-12-11T05:24:55;7.70;;;1.85;;
32196;SDS011;18697;42.770;23.400;2022-12-11T05:27:20;2.53;;;1.05;;
32196;SDS011;18697;42.770;23.400;2022-12-11T05:32:11;3.38;;;0.90;;
32196;SDS011;18697;42.770;23.400;2022-12-11T05:37:02;2.83;;;1.08;;
32196;SDS011;18697;42.770;23.400;2022-12-11T05:39:27;3.67;;;1.15;;
32196;SDS011;18697;42.770;23.400;2022-12-11T05:41:53;9.35;;;1.48;;
32196;SDS011;18697;42.770;23.400;2022-12-11T05:46:43;6.63;;;2.35;;
32196;SDS011;18697;42.770;23.400;2022-12-11T05:51:34;5.03;;;2.03;;
32196;SDS011;18697;42.770;23.400;2022-12-11T05:54:00;7.57;;;2.00;;
32196;SDS011;18697;42.770;23.400;2022-12-11T05:58:52;5.53;;;1.60;;
32196;SDS011;18697;42.770;23.400;2022-12-11T06:01:22;10.63;;;1.73;;
32196;SDS011;18697;42.770;23.400;2022-12-11T06:03:50;4.90;;;2.33;;
32196;SDS011;18697;42.770;23.400;2022-12-11T06:06:15;4.95;;;2.00;;
32196;SDS011;18697;42.770;23.400;2022-12-11T06:08:41;4.97;;;2.03;;
32196;SDS011;18697;42.770;23.400;2022-12-11T06:11:07;7.93;;;1.77;;
32196;SDS011;18697;42.770;23.400;2022-12-11T06:16:04;3.33;;;1.40;;
32196;SDS011;18697;42.770;23.400;2022-12-11T06:18:31;4.25;;;1.40;;
32196;SDS011;18697;42.770;23.400;2022-12-11T06:21:00;7.65;;;1.67;;
32196;SDS011;18697;42.770;23.400;2022-12-11T06:23:25;8.20;;;1.85;;
32196;SDS011;18697;42.770;23.400;2022-12-11T06:28:16;5.85;;;1.83;;
32196;SDS011;18697;42.770;23.400;2022-12-11T06:33:07;2.78;;;1.67;;
32196;SDS011;18697;42.770;23.400;2022-12-11T06:37:57;5.63;;;1.83;;
32196;SDS011;18697;42.770;23.400;2022-12-11T06:40:23;11.13;;;1.95;;
32196;SDS011;18697;42.770;23.400;2022-12-11T06:42:49;4.13;;;1.35;;
32196;SDS011;18697;42.770;23.400;2022-12-11T06:47:39;5.85;;;1.73;;
32196;SDS011;18697;42.770;23.400;2022-12-11T06:52:30;7.05;;;2.08;;
32196;SDS011;18697;42.770;23.400;2022-12-11T06:57:21;9.40;;;1.90;;
32196;SDS011;18697;42.770;23.400;2022-12-11T07:02:16;9.93;;;2.30;;
32196;SDS011;18697;42.770;23.400;2022-12-11T07:04:43;6.30;;;1.85;;
32196;SDS011;18697;42.770;23.400;2022-12-11T07:07:09;13.55;;;2.83;;
32196;SDS011;18697;42.770;23.400;2022-12-11T07:09:35;6.80;;;2.13;;
32196;SDS011;18697;42.770;23.400;2022-12-11T07:12:02;7.68;;;2.03;;
32196;SDS011;18697;42.770;23.400;2022-12-11T07:14:28;10.55;;;1.90;;
32196;SDS011;18697;42.770;23.400;2022-12-11T07:16:54;9.82;;;3.22;;
32196;SDS011;18697;42.770;23.400;2022-12-11T07:19:20;7.78;;;4.15;;
32196;SDS011;18697;42.770;23.400;2022-12-11T07:21:45;8.57;;;3.83;;
32196;SDS011;18697;42.770;23.400;2022-12-11T07:24:11;9.85;;;2.97;;
32196;SDS011;18697;42.770;23.400;2022-12-11T07:29:02;6.15;;;3.78;;
32196;SDS011;18697;42.770;23.400;2022-12-11T07:33:57;2.92;;;2.10;;
32196;SDS011;18697;42.770;23.400;2022-12-11T07:36:25;6.00;;;2.53;;
32196;SDS011;18697;42.770;23.400;2022-12-11T07:38:51;7.05;;;2.38;;
32196;SDS011;18697;42.770;23.400;2022-12-11T07:41:17;7.32;;;5.35;;
32196;SDS011;18697;42.770;23.400;2022-12-11T07:43:43;7.43;;;6.72;;
32196;SDS011;18697;42.770;23.400;2022-12-11T07:46:10;3.88;;;2.17;;
32196;SDS011;18697;42.770;23.400;2022-12-11T07:48:38;4.65;;;1.45;;
32196;SDS011;18697;42.770;23.400;2022-12-11T07:51:09;3.20;;;1.00;;
32196;SDS011;18697;42.770;23.400;2022-12-11T07:53:39;4.85;;;1.10;;
32196;SDS011;18697;42.770;23.400;2022-12-11T07:56:05;7.40;;;2.28;;
32196;SDS011;18697;42.770;23.400;2022-12-11T07:58:30;5.90;;;1.70;;
32196;SDS011;18697;42.770;23.400;2022-12-11T08:03:22;5.50;;;2.60;;
32196;SDS011;18697;42.770;23.400;2022-12-11T08:05:48;14.93;;;7.97;;
32196;SDS011;18697;42.770;23.400;2022-12-11T08:08:14;3.28;;;2.15;;
32196;SDS011;18697;42.770;23.400;2022-12-11T08:10:40;21.67;;;15.60;;
32196;SDS011;18697;42.770;23.400;2022-12-11T08:13:05;10.57;;;3.90;;
32196;SDS011;18697;42.770;23.400;2022-12-11T08:15:31;10.18;;;3.35;;
32196;SDS011;18697;42.770;23.400;2022-12-11T08:17:56;4.88;;;2.35;;
32196;SDS011;18697;42.770;23.400;2022-12-11T08:20:21;4.25;;;1.77;;
32196;SDS011;18697;42.770;23.400;2022-12-11T08:22:47;5.35;;;1.65;;
32196;SDS011;18697;42.770;23.400;2022-12-11T08:25:12;8.73;;;1.60;;
32196;SDS011;18697;42.770;23.400;2022-12-11T08:27:38;5.70;;;1.80;;
32196;SDS011;18697;42.770;23.400;2022-12-11T08:32:28;1.05;;;0.82;;
32196;SDS011;18697;42.770;23.400;2022-12-11T08:34:54;3.70;;;1.15;;
32196;SDS011;18697;42.770;23.400;2022-12-11T08:37:19;5.57;;;2.03;;
32196;SDS011;18697;42.770;23.400;2022-12-11T08:42:11;3.97;;;1.52;;
32196;SDS011;18697;42.770;23.400;2022-12-11T08:44:36;2.35;;;1.98;;
32196;SDS011;18697;42.770;23.400;2022-12-11T08:47:01;13.25;;;5.60;;
32196;SDS011;18697;42.770;23.400;2022-12-11T08:49:27;34.75;;;21.20;;
32196;SDS011;18697;42.770;23.400;2022-12-11T08:51:52;20.65;;;12.75;;
32196;SDS011;18697;42.770;23.400;2022-12-11T08:54:18;13.48;;;5.22;;
32196;SDS011;18697;42.770;23.400;2022-12-11T08:56:44;5.28;;;2.97;;
32196;SDS011;18697;42.770;23.400;2022-12-11T09:01:34;1.75;;;1.00;;
32196;SDS011;18697;42.770;23.400;2022-12-11T09:06:26;26.92;;;14.02;;
32196;SDS011;18697;42.770;23.400;2022-12-11T09:08:54;9.18;;;4.35;;
32196;SDS011;18697;42.770;23.400;2022-12-11T09:11:24;10.63;;;6.72;;
32196;SDS011;18697;42.770;23.400;2022-12-11T09:13:52;7.20;;;5.45;;
32196;SDS011;18697;42.770;23.400;2022-12-11T09:16:19;8.82;;;3.90;;
32196;SDS011;18697;42.770;23.400;2022-12-11T09:18:46;6.32;;;2.97;;
32196;SDS011;18697;42.770;23.400;2022-12-11T09:21:14;5.50;;;2.80;;
32196;SDS011;18697;42.770;23.400;2022-12-11T09:23:41;20.67;;;11.20;;
32196;SDS011;18697;42.770;23.400;2022-12-11T09:26:07;5.72;;;3.72;;
32196;SDS011;18697;42.770;23.400;2022-12-11T09:28:35;40.20;;;14.90;;
32196;SDS011;18697;42.770;23.400;2022-12-11T09:31:07;12.80;;;4.13;;
32196;SDS011;18697;42.770;23.400;2022-12-11T09:33:33;9.25;;;3.90;;
32196;SDS011;18697;42.770;23.400;2022-12-11T09:35:59;4.07;;;2.10;;
32196;SDS011;18697;42.770;23.400;2022-12-11T09:38:25;12.52;;;4.80;;
32196;SDS011;18697;42.770;23.400;2022-12-11T09:40:51;49.50;;;19.65;;
32196;SDS011;18697;42.770;23.400;2022-12-11T09:46:02;12.05;;;5.05;;
32196;SDS011;18697;42.770;23.400;2022-12-11T09:48:29;10.20;;;3.38;;
32196;SDS011;18697;42.770;23.400;2022-12-11T09:50:57;14.55;;;6.43;;
32196;SDS011;18697;42.770;23.400;2022-12-11T09:53:31;19.92;;;9.65;;
32196;SDS011;18697;42.770;23.400;2022-12-11T09:56:02;5.18;;;3.03;;
32196;SDS011;18697;42.770;23.400;2022-12-11T10:06:29;6.47;;;3.83;;
32196;SDS011;18697;42.770;23.400;2022-12-11T10:12:05;9.10;;;5.88;;
32196;SDS011;18697;42.770;23.400;2022-12-11T10:17:41;4.05;;;3.42;;
32196;SDS011;18697;42.770;23.400;2022-12-11T10:22:33;11.60;;;5.50;;
32196;SDS011;18697;42.770;23.400;2022-12-11T10:25:01;5.88;;;3.45;;
32196;SDS011;18697;42.770;23.400;2022-12-11T10:27:30;8.18;;;3.65;;
32196;SDS011;18697;42.770;23.400;2022-12-11T10:30:06;3.75;;;2.15;;
32196;SDS011;18697;42.770;23.400;2022-12-11T10:35:37;3.70;;;2.80;;
32196;SDS011;18697;42.770;23.400;2022-12-11T10:38:14;6.65;;;1.92;;
32196;SDS011;18697;42.770;23.400;2022-12-11T10:40:43;3.00;;;2.10;;
32196;SDS011;18697;42.770;23.400;2022-12-11T10:46:17;2.65;;;1.15;;
32196;SDS011;18697;42.770;23.400;2022-12-11T10:48:49;1.88;;;1.60;;
32196;SDS011;18697;42.770;23.400;2022-12-11T10:51:17;2.30;;;2.10;;
32196;SDS011;18697;42.770;23.400;2022-12-11T10:53:51;4.75;;;1.98;;
32196;SDS011;18697;42.770;23.400;2022-12-11T10:56:29;9.77;;;4.53;;
32196;SDS011;18697;42.770;23.400;2022-12-11T10:58:57;69.78;;;28.35;;
32196;SDS011;18697;42.770;23.400;2022-12-11T11:01:24;83.18;;;34.40;;
32196;SDS011;18697;42.770;23.400;2022-12-11T11:06:37;7.40;;;4.20;;
32196;SDS011;18697;42.770;23.400;2022-12-11T11:09:03;6.60;;;3.90;;
32196;SDS011;18697;42.770;23.400;2022-12-11T11:16:38;79.25;;;36.22;;
32196;SDS011;18697;42.770;23.400;2022-12-11T11:19:05;93.50;;;40.30;;
32196;SDS011;18697;42.770;23.400;2022-12-11T11:21:31;76.72;;;34.83;;
32196;SDS011;18697;42.770;23.400;2022-12-11T11:23:58;60.97;;;29.88;;
32196;SDS011;18697;42.770;23.400;2022-12-11T11:26:23;44.25;;;20.30;;
32196;SDS011;18697;42.770;23.400;2022-12-11T11:31:19;14.90;;;7.82;;
32196;SDS011;18697;42.770;23.400;2022-12-11T11:33:53;26.73;;;12.55;;
32196;SDS011;18697;42.770;23.400;2022-12-11T11:36:25;42.70;;;15.07;;
32196;SDS011;18697;42.770;23.400;2022-12-11T11:41:36;20.38;;;9.13;;
32196;SDS011;18697;42.770;23.400;2022-12-11T11:44:10;13.02;;;6.80;;
32196;SDS011;18697;42.770;23.400;2022-12-11T11:46:41;34.83;;;14.35;;
32196;SDS011;18697;42.770;23.400;2022-12-11T11:49:26;39.53;;;18.00;;
32196;SDS011;18697;42.770;23.400;2022-12-11T11:57:22;25.88;;;11.07;;
32196;SDS011;18697;42.770;23.400;2022-12-11T12:02:56;8.98;;;5.18;;
32196;SDS011;18697;42.770;23.400;2022-12-11T12:05:27;19.02;;;9.10;;
32196;SDS011;18697;42.770;23.400;2022-12-11T12:18:18;8.10;;;4.60;;
32196;SDS011;18697;42.770;23.400;2022-12-11T12:20:54;12.75;;;6.60;;
32196;SDS011;18697;42.770;23.400;2022-12-11T12:26:36;9.63;;;6.00;;
32196;SDS011;18697;42.770;23.400;2022-12-11T12:29:21;5.95;;;4.70;;
32196;SDS011;18697;42.770;23.400;2022-12-11T12:31:52;6.43;;;5.30;;
32196;SDS011;18697;42.770;23.400;2022-12-11T12:34:38;3.97;;;2.75;;
32196;SDS011;18697;42.770;23.400;2022-12-11T12:39:48;3.75;;;3.03;;
32196;SDS011;18697;42.770;23.400;2022-12-11T12:42:31;3.63;;;2.75;;
32196;SDS011;18697;42.770;23.400;2022-12-11T12:45:13;2.80;;;2.60;;
32196;SDS011;18697;42.770;23.400;2022-12-11T12:47:41;7.05;;;3.05;;
32196;SDS011;18697;42.770;23.400;2022-12-11T12:50:19;8.35;;;4.70;;
32196;SDS011;18697;42.770;23.400;2022-12-11T12:52:48;13.52;;;9.05;;
32196;SDS011;18697;42.770;23.400;2022-12-11T12:55:22;7.05;;;3.95;;
32196;SDS011;18697;42.770;23.400;2022-12-11T12:57:52;11.13;;;5.70;;
32196;SDS011;18697;42.770;23.400;2022-12-11T13:00:27;16.45;;;7.75;;
32196;SDS011;18697;42.770;23.400;2022-12-11T13:03:13;7.63;;;4.55;;
32196;SDS011;18697;42.770;23.400;2022-12-11T13:05:43;8.23;;;5.97;;
32196;SDS011;18697;42.770;23.400;2022-12-11T13:08:27;10.45;;;6.70;;
32196;SDS011;18697;42.770;23.400;2022-12-11T13:11:01;12.80;;;6.00;;
32196;SDS011;18697;42.770;23.400;2022-12-11T13:13:33;11.73;;;6.20;;
32196;SDS011;18697;42.770;23.400;2022-12-11T13:16:06;10.85;;;5.90;;
32196;SDS011;18697;42.770;23.400;2022-12-11T13:18:42;11.15;;;5.10;;
32196;SDS011;18697;42.770;23.400;2022-12-11T13:24:09;10.50;;;6.00;;
32196;SDS011;18697;42.770;23.400;2022-12-11T13:26:36;15.40;;;6.38;;
32196;SDS011;18697;42.770;23.400;2022-12-11T13:29:01;8.90;;;5.03;;
32196;SDS011;18697;42.770;23.400;2022-12-11T13:34:07;6.90;;;4.05;;
32196;SDS011;18697;42.770;23.400;2022-12-11T13:36:40;10.77;;;5.70;;
32196;SDS011;18697;42.770;23.400;2022-12-11T13:39:18;5.40;;;3.80;;
32196;SDS011;18697;42.770;23.400;2022-12-11T13:41:49;8.13;;;4.57;;
32196;SDS011;18697;42.770;23.400;2022-12-11T13:44:28;8.02;;;4.53;;
32196;SDS011;18697;42.770;23.400;2022-12-11T13:46:57;6.53;;;3.78;;
32196;SDS011;18697;42.770;23.400;2022-12-11T13:49:25;6.65;;;3.92;;
32196;SDS011;18697;42.770;23.400;2022-12-11T13:51:58;3.95;;;3.33;;
32196;SDS011;18697;42.770;23.400;2022-12-11T13:54:24;3.30;;;3.00;;
32196;SDS011;18697;42.770;23.400;2022-12-11T13:56:54;3.80;;;2.65;;
32196;SDS011;18697;42.770;23.400;2022-12-11T13:59:33;3.63;;;3.13;;
32196;SDS011;18697;42.770;23.400;2022-12-11T14:02:25;5.35;;;3.28;;
32196;SDS011;18697;42.770;23.400;2022-12-11T14:04:54;7.65;;;5.03;;
32196;SDS011;18697;42.770;23.400;2022-12-11T14:07:30;5.35;;;3.17;;
32196;SDS011;18697;42.770;23.400;2022-12-11T14:10:05;8.05;;;4.55;;
32196;SDS011;18697;42.770;23.400;2022-12-11T14:12:34;11.07;;;4.85;;
32196;SDS011;18697;42.770;23.400;2022-12-11T14:15:01;5.18;;;3.08;;
32196;SDS011;18697;42.770;23.400;2022-12-11T14:17:29;7.25;;;4.28;;
32196;SDS011;18697;42.770;23.400;2022-12-11T14:19:58;3.85;;;2.95;;
32196;SDS011;18697;42.770;23.400;2022-12-11T14:22:26;3.95;;;3.17;;
32196;SDS011;18697;42.770;23.400;2022-12-11T14:24:54;4.57;;;2.15;;
32196;SDS011;18697;42.770;23.400;2022-12-11T14:27:21;3.42;;;2.08;;
32196;SDS011;18697;42.770;23.400;2022-12-11T14:29:48;1.90;;;1.77;;
32196;SDS011;18697;42.770;23.400;2022-12-11T14:32:19;3.25;;;2.20;;
32196;SDS011;18697;42.770;23.400;2022-12-11T14:34:54;3.50;;;2.50;;
32196;SDS011;18697;42.770;23.400;2022-12-11T14:37:20;4.70;;;3.20;;
32196;SDS011;18697;42.770;23.400;2022-12-11T14:42:50;6.55;;;4.07;;
32196;SDS011;18697;42.770;23.400;2022-12-11T14:45:20;3.63;;;3.30;;
32196;SDS011;18697;42.770;23.400;2022-12-11T14:47:54;9.45;;;5.18;;
32196;SDS011;18697;42.770;23.400;2022-12-11T14:50:35;11.35;;;6.47;;
32196;SDS011;18697;42.770;23.400;2022-12-11T14:53:24;10.85;;;6.03;;
32196;SDS011;18697;42.770;23.400;2022-12-11T14:55:52;29.98;;;12.18;;
32196;SDS011;18697;42.770;23.400;2022-12-11T14:58:21;10.35;;;6.07;;
32196;SDS011;18697;42.770;23.400;2022-12-11T15:01:07;11.02;;;4.07;;
32196;SDS011;18697;42.770;23.400;2022-12-11T15:03:46;11.75;;;4.68;;
32196;SDS011;18697;42.770;23.400;2022-12-11T15:08:53;6.28;;;3.53;;
32196;SDS011;18697;42.770;23.400;2022-12-11T15:11:18;10.85;;;4.97;;
32196;SDS011;18697;42.770;23.400;2022-12-11T15:13:55;9.57;;;4.53;;
32196;SDS011;18697;42.770;23.400;2022-12-11T15:16:23;7.30;;;3.92;;
32196;SDS011;18697;42.770;23.400;2022-12-11T15:18:51;10.43;;;4.63;;
32196;SDS011;18697;42.770;23.400;2022-12-11T15:21:18;11.65;;;5.55;;
32196;SDS011;18697;42.770;23.400;2022-12-11T15:23:54;12.90;;;6.43;;
32196;SDS011;18697;42.770;23.400;2022-12-11T15:26:32;9.80;;;4.70;;
32196;SDS011;18697;42.770;23.400;2022-12-11T15:29:04;11.48;;;5.85;;
32196;SDS011;18697;42.770;23.400;2022-12-11T15:31:32;20.63;;;10.00;;
32196;SDS011;18697;42.770;23.400;2022-12-11T15:33:59;14.68;;;7.47;;
32196;SDS011;18697;42.770;23.400;2022-12-11T15:38:57;22.63;;;9.50;;
32196;SDS011;18697;42.770;23.400;2022-12-11T15:41:23;24.58;;;10.70;;
32196;SDS011;18697;42.770;23.400;2022-12-11T15:43:49;11.88;;;6.07;;
32196;SDS011;18697;42.770;23.400;2022-12-11T15:46:17;15.80;;;7.40;;
32196;SDS011;18697;42.770;23.400;2022-12-11T15:48:43;18.58;;;9.75;;
32196;SDS011;18697;42.770;23.400;2022-12-11T15:51:09;18.67;;;9.57;;
32196;SDS011;18697;42.770;23.400;2022-12-11T15:53:34;29.17;;;12.88;;
32196;SDS011;18697;42.770;23.400;2022-12-11T15:56:00;7.43;;;4.95;;
32196;SDS011;18697;42.770;23.400;2022-12-11T15:58:26;24.95;;;13.32;;
32196;SDS011;18697;42.770;23.400;2022-12-11T16:00:52;18.73;;;10.00;;
32196;SDS011;18697;42.770;23.400;2022-12-11T16:03:19;19.38;;;9.50;;
32196;SDS011;18697;42.770;23.400;2022-12-11T16:05:45;9.88;;;5.60;;
32196;SDS011;18697;42.770;23.400;2022-12-11T16:08:12;13.93;;;5.45;;
32196;SDS011;18697;42.770;23.400;2022-12-11T16:10:40;13.02;;;6.32;;
32196;SDS011;18697;42.770;23.400;2022-12-11T16:13:07;6.40;;;4.07;;
32196;SDS011;18697;42.770;23.400;2022-12-11T16:15:32;7.03;;;3.78;;
32196;SDS011;18697;42.770;23.400;2022-12-11T16:18:02;11.48;;;5.45;;
32196;SDS011;18697;42.770;23.400;2022-12-11T16:20:32;14.32;;;6.15;;
32196;SDS011;18697;42.770;23.400;2022-12-11T16:22:59;15.90;;;7.30;;
32196;SDS011;18697;42.770;23.400;2022-12-11T16:25:24;19.25;;;9.65;;
32196;SDS011;18697;42.770;23.400;2022-12-11T16:27:50;18.35;;;8.60;;
32196;SDS011;18697;42.770;23.400;2022-12-11T16:30:18;14.05;;;7.88;;
32196;SDS011;18697;42.770;23.400;2022-12-11T16:32:44;27.13;;;11.02;;
32196;SDS011;18697;42.770;23.400;2022-12-11T16:35:09;9.20;;;5.82;;
32196;SDS011;18697;42.770;23.400;2022-12-11T16:37:34;9.77;;;5.07;;
32196;SDS011;18697;42.770;23.400;2022-12-11T16:40:00;18.63;;;9.02;;
32196;SDS011;18697;42.770;23.400;2022-12-11T16:42:25;15.43;;;8.82;;
32196;SDS011;18697;42.770;23.400;2022-12-11T16:44:51;13.27;;;6.88;;
32196;SDS011;18697;42.770;23.400;2022-12-11T16:47:16;9.05;;;5.57;;
32196;SDS011;18697;42.770;23.400;2022-12-11T16:49:42;7.70;;;4.70;;
32196;SDS011;18697;42.770;23.400;2022-12-11T16:52:07;19.33;;;10.95;;
32196;SDS011;18697;42.770;23.400;2022-12-11T16:54:33;14.27;;;7.40;;
32196;SDS011;18697;42.770;23.400;2022-12-11T16:56:58;12.23;;;7.28;;
32196;SDS011;18697;42.770;23.400;2022-12-11T16:59:24;16.83;;;8.82;;
32196;SDS011;18697;42.770;23.400;2022-12-11T17:01:49;22.15;;;10.13;;
32196;SDS011;18697;42.770;23.400;2022-12-11T17:04:15;18.08;;;8.95;;
32196;SDS011;18697;42.770;23.400;2022-12-11T17:06:40;10.80;;;6.05;;
32196;SDS011;18697;42.770;23.400;2022-12-11T17:09:06;17.20;;;8.43;;
32196;SDS011;18697;42.770;23.400;2022-12-11T17:11:31;9.25;;;6.05;;
32196;SDS011;18697;42.770;23.400;2022-12-11T17:13:57;17.45;;;10.35;;
32196;SDS011;18697;42.770;23.400;2022-12-11T17:16:24;30.10;;;15.40;;
32196;SDS011;18697;42.770;23.400;2022-12-11T17:18:53;10.75;;;6.18;;
32196;SDS011;18697;42.770;23.400;2022-12-11T17:21:19;9.90;;;5.65;;
32196;SDS011;18697;42.770;23.400;2022-12-11T17:23:46;7.72;;;5.53;;
32196;SDS011;18697;42.770;23.400;2022-12-11T17:26:12;6.85;;;4.75;;
32196;SDS011;18697;42.770;23.400;2022-12-11T17:28:38;11.18;;;6.45;;
32196;SDS011;18697;42.770;23.400;2022-12-11T17:31:08;12.10;;;7.22;;
32196;SDS011;18697;42.770;23.400;2022-12-11T17:33:36;16.48;;;7.90;;
32196;SDS011;18697;42.770;23.400;2022-12-11T17:36:03;8.15;;;5.03;;
32196;SDS011;18697;42.770;23.400;2022-12-11T17:38:30;3.30;;;2.90;;
32196;SDS011;18697;42.770;23.400;2022-12-11T17:40:58;5.50;;;3.50;;
32196;SDS011;18697;42.770;23.400;2022-12-11T17:43:23;10.85;;;6.45;;